sensor_id;sensor_type;location;lat;lon;timestamp;temperature;humidity
78694;SHT31;68029;51.978;5.646;2023-05-23T00:01:15;17.8;65.2
78694;SHT31;68029;51.978;5.646;2023-05-23T00:03:46;17.8;65.3
78694;SHT31;68029;51.978;5.646;2023-05-23T00:06:18;17.8;65.6
78694;SHT31;68029;51.978;5.646;2023-05-23T00:08:49;17.7;66.1
78694;SHT31;68029;51.978;5.646;2023-05-23T00:11:19;17.7;66.1
78694;SHT31;68029;51.978;5.646;2023-05-23T00:13:54;17.7;66.1
78694;SHT31;68029;51.978;5.646;2023-05-23T00:16:27;17.7;66.1
78694;SHT31;68029;51.978;5.646;2023-05-23T00:18:57;17.7;66.3
78694;SHT31;68029;51.978;5.646;2023-05-23T00:21:28;17.6;66.3
78694;SHT31;68029;51.978;5.646;2023-05-23T00:23:59;17.6;66.5
78694;SHT31;68029;51.978;5.646;2023-05-23T00:26:31;17.6;66.7
78694;SHT31;68029;51.978;5.646;2023-05-23T00:29:02;17.6;66.5
78694;SHT31;68029;51.978;5.646;2023-05-23T00:31:32;17.5;67.0
78694;SHT31;68029;51.978;5.646;2023-05-23T00:34:01;17.5;67.1
78694;SHT31;68029;51.978;5.646;2023-05-23T00:36:31;17.5;67.2
78694;SHT31;68029;51.978;5.646;2023-05-23T00:39:03;17.5;67.1
78694;SHT31;68029;51.978;5.646;2023-05-23T00:41:35;17.5;67.2
78694;SHT31;68029;51.978;5.646;2023-05-23T00:44:04;17.5;67.2
78694;SHT31;68029;51.978;5.646;2023-05-23T00:46:36;17.5;67.4
78694;SHT31;68029;51.978;5.646;2023-05-23T00:49:06;17.4;67.7
78694;SHT31;68029;51.978;5.646;2023-05-23T00:51:36;17.4;67.7
78694;SHT31;68029;51.978;5.646;2023-05-23T00:54:06;17.4;68.0
78694;SHT31;68029;51.978;5.646;2023-05-23T00:56:37;17.3;68.6
78694;SHT31;68029;51.978;5.646;2023-05-23T00:59:08;17.3;68.7
78694;SHT31;68029;51.978;5.646;2023-05-23T01:01:39;17.3;68.8
78694;SHT31;68029;51.978;5.646;2023-05-23T01:04:12;17.3;68.9
78694;SHT31;68029;51.978;5.646;2023-05-23T01:06:43;17.2;68.8
78694;SHT31;68029;51.978;5.646;2023-05-23T01:09:16;17.2;68.8
78694;SHT31;68029;51.978;5.646;2023-05-23T01:11:57;17.2;68.6
78694;SHT31;68029;51.978;5.646;2023-05-23T01:14:41;17.2;68.4
78694;SHT31;68029;51.978;5.646;2023-05-23T01:17:14;17.1;68.2
78694;SHT31;68029;51.978;5.646;2023-05-23T01:19:55;17.1;67.9
78694;SHT31;68029;51.978;5.646;2023-05-23T01:22:58;17.1;68.2
78694;SHT31;68029;51.978;5.646;2023-05-23T01:25:43;17.0;68.1
78694;SHT31;68029;51.978;5.646;2023-05-23T01:28:18;17.0;68.1
78694;SHT31;68029;51.978;5.646;2023-05-23T01:30:51;17.0;68.1
78694;SHT31;68029;51.978;5.646;2023-05-23T01:33:23;17.0;67.9
78694;SHT31;68029;51.978;5.646;2023-05-23T01:35:55;17.0;68.4
78694;SHT31;68029;51.978;5.646;2023-05-23T01:38:26;16.9;68.5
78694;SHT31;68029;51.978;5.646;2023-05-23T01:40:56;16.9;68.7
78694;SHT31;68029;51.978;5.646;2023-05-23T01:43:26;16.9;68.8
78694;SHT31;68029;51.978;5.646;2023-05-23T01:45:58;16.9;69.0
78694;SHT31;68029;51.978;5.646;2023-05-23T01:48:32;16.9;69.2
78694;SHT31;68029;51.978;5.646;2023-05-23T01:51:02;16.9;69.3
78694;SHT31;68029;51.978;5.646;2023-05-23T01:53:34;17.0;69.3
78694;SHT31;68029;51.978;5.646;2023-05-23T01:56:05;17.0;69.2
78694;SHT31;68029;51.978;5.646;2023-05-23T01:58:35;17.0;69.3
78694;SHT31;68029;51.978;5.646;2023-05-23T02:01:05;17.0;69.1
78694;SHT31;68029;51.978;5.646;2023-05-23T02:03:35;17.1;69.2
78694;SHT31;68029;51.978;5.646;2023-05-23T02:06:05;17.1;69.1
78694;SHT31;68029;51.978;5.646;2023-05-23T02:08:35;17.1;69.0
78694;SHT31;68029;51.978;5.646;2023-05-23T02:11:05;17.1;69.1
78694;SHT31;68029;51.978;5.646;2023-05-23T02:13:37;17.1;69.2
78694;SHT31;68029;51.978;5.646;2023-05-23T02:16:07;17.1;69.1
78694;SHT31;68029;51.978;5.646;2023-05-23T02:18:37;17.1;68.7
78694;SHT31;68029;51.978;5.646;2023-05-23T02:21:07;17.1;68.4
78694;SHT31;68029;51.978;5.646;2023-05-23T02:23:37;17.1;68.3
78694;SHT31;68029;51.978;5.646;2023-05-23T02:26:09;17.0;68.7
78694;SHT31;68029;51.978;5.646;2023-05-23T02:28:38;17.0;68.8
78694;SHT31;68029;51.978;5.646;2023-05-23T02:31:08;17.0;68.8
78694;SHT31;68029;51.978;5.646;2023-05-23T02:33:37;17.0;69.1
78694;SHT31;68029;51.978;5.646;2023-05-23T02:36:07;16.9;69.3
78694;SHT31;68029;51.978;5.646;2023-05-23T02:38:37;16.9;69.4
78694;SHT31;68029;51.978;5.646;2023-05-23T02:41:06;16.9;69.4
78694;SHT31;68029;51.978;5.646;2023-05-23T02:43:37;16.8;69.2
78694;SHT31;68029;51.978;5.646;2023-05-23T02:46:06;16.8;69.1
78694;SHT31;68029;51.978;5.646;2023-05-23T02:48:36;16.8;69.2
78694;SHT31;68029;51.978;5.646;2023-05-23T02:51:07;16.7;69.3
78694;SHT31;68029;51.978;5.646;2023-05-23T02:53:37;16.7;69.4
78694;SHT31;68029;51.978;5.646;2023-05-23T02:56:08;16.7;69.5
78694;SHT31;68029;51.978;5.646;2023-05-23T02:58:38;16.7;69.4
78694;SHT31;68029;51.978;5.646;2023-05-23T03:01:08;16.6;69.7
78694;SHT31;68029;51.978;5.646;2023-05-23T03:03:38;16.6;69.9
78694;SHT31;68029;51.978;5.646;2023-05-23T03:06:08;16.7;69.6
78694;SHT31;68029;51.978;5.646;2023-05-23T03:08:42;16.7;69.3
78694;SHT31;68029;51.978;5.646;2023-05-23T03:11:13;16.7;69.0
78694;SHT31;68029;51.978;5.646;2023-05-23T03:13:43;16.7;68.9
78694;SHT31;68029;51.978;5.646;2023-05-23T03:16:12;16.7;69.4
78694;SHT31;68029;51.978;5.646;2023-05-23T03:18:42;16.7;68.9
78694;SHT31;68029;51.978;5.646;2023-05-23T03:21:12;16.7;68.9
78694;SHT31;68029;51.978;5.646;2023-05-23T03:23:41;16.7;68.5
78694;SHT31;68029;51.978;5.646;2023-05-23T03:26:11;16.7;68.7
78694;SHT31;68029;51.978;5.646;2023-05-23T03:28:42;16.8;68.5
78694;SHT31;68029;51.978;5.646;2023-05-23T03:31:12;16.8;68.4
78694;SHT31;68029;51.978;5.646;2023-05-23T03:33:41;16.8;67.9
78694;SHT31;68029;51.978;5.646;2023-05-23T03:36:13;16.8;68.1
78694;SHT31;68029;51.978;5.646;2023-05-23T03:38:42;16.8;68.1
78694;SHT31;68029;51.978;5.646;2023-05-23T03:41:12;16.8;68.3
78694;SHT31;68029;51.978;5.646;2023-05-23T03:43:41;16.8;68.0
78694;SHT31;68029;51.978;5.646;2023-05-23T03:46:11;16.8;67.9
78694;SHT31;68029;51.978;5.646;2023-05-23T03:48:40;16.8;67.9
78694;SHT31;68029;51.978;5.646;2023-05-23T03:51:10;16.8;68.0
78694;SHT31;68029;51.978;5.646;2023-05-23T03:53:40;16.8;68.3
78694;SHT31;68029;51.978;5.646;2023-05-23T03:56:10;16.8;68.7
78694;SHT31;68029;51.978;5.646;2023-05-23T03:58:39;16.8;68.3
78694;SHT31;68029;51.978;5.646;2023-05-23T04:01:09;16.8;67.9
78694;SHT31;68029;51.978;5.646;2023-05-23T04:03:39;16.8;68.0
78694;SHT31;68029;51.978;5.646;2023-05-23T04:06:09;16.8;68.1
78694;SHT31;68029;51.978;5.646;2023-05-23T04:08:39;16.8;68.4
78694;SHT31;68029;51.978;5.646;2023-05-23T04:11:11;16.7;67.9
78694;SHT31;68029;51.978;5.646;2023-05-23T04:13:41;16.7;67.8
78694;SHT31;68029;51.978;5.646;2023-05-23T04:16:13;16.7;67.5
78694;SHT31;68029;51.978;5.646;2023-05-23T04:18:44;16.6;67.9
78694;SHT31;68029;51.978;5.646;2023-05-23T04:21:15;16.6;67.8
78694;SHT31;68029;51.978;5.646;2023-05-23T04:23:44;16.6;68.3
78694;SHT31;68029;51.978;5.646;2023-05-23T04:26:14;16.6;68.0
78694;SHT31;68029;51.978;5.646;2023-05-23T04:28:44;16.5;67.9
78694;SHT31;68029;51.978;5.646;2023-05-23T04:31:15;16.5;68.2
78694;SHT31;68029;51.978;5.646;2023-05-23T04:33:45;16.5;68.1
78694;SHT31;68029;51.978;5.646;2023-05-23T04:36:15;16.5;68.4
78694;SHT31;68029;51.978;5.646;2023-05-23T04:38:44;16.5;68.4
78694;SHT31;68029;51.978;5.646;2023-05-23T04:41:14;16.5;68.4
78694;SHT31;68029;51.978;5.646;2023-05-23T04:43:49;16.4;68.7
78694;SHT31;68029;51.978;5.646;2023-05-23T04:46:21;16.4;69.3
78694;SHT31;68029;51.978;5.646;2023-05-23T04:48:53;16.4;69.2
78694;SHT31;68029;51.978;5.646;2023-05-23T04:51:25;16.3;69.7
78694;SHT31;68029;51.978;5.646;2023-05-23T04:53:55;16.3;69.9
78694;SHT31;68029;51.978;5.646;2023-05-23T04:56:24;16.3;70.4
78694;SHT31;68029;51.978;5.646;2023-05-23T04:58:55;16.3;70.7
78694;SHT31;68029;51.978;5.646;2023-05-23T05:01:25;16.3;70.6
78694;SHT31;68029;51.978;5.646;2023-05-23T05:03:55;16.3;70.3
78694;SHT31;68029;51.978;5.646;2023-05-23T05:06:25;16.2;70.1
78694;SHT31;68029;51.978;5.646;2023-05-23T05:08:55;16.2;69.7
78694;SHT31;68029;51.978;5.646;2023-05-23T05:11:25;16.1;69.5
78694;SHT31;68029;51.978;5.646;2023-05-23T05:13:55;16.1;70.0
78694;SHT31;68029;51.978;5.646;2023-05-23T05:16:25;16.1;69.2
78694;SHT31;68029;51.978;5.646;2023-05-23T05:18:54;16.0;68.9
78694;SHT31;68029;51.978;5.646;2023-05-23T05:21:24;16.0;68.7
78694;SHT31;68029;51.978;5.646;2023-05-23T05:23:53;15.9;69.0
78694;SHT31;68029;51.978;5.646;2023-05-23T05:26:24;15.9;68.8
78694;SHT31;68029;51.978;5.646;2023-05-23T05:28:54;15.9;68.7
78694;SHT31;68029;51.978;5.646;2023-05-23T05:31:25;15.9;68.8
78694;SHT31;68029;51.978;5.646;2023-05-23T05:33:55;15.8;68.9
78694;SHT31;68029;51.978;5.646;2023-05-23T05:36:25;15.8;68.8
78694;SHT31;68029;51.978;5.646;2023-05-23T05:38:54;15.8;69.0
78694;SHT31;68029;51.978;5.646;2023-05-23T05:41:24;15.7;68.7
78694;SHT31;68029;51.978;5.646;2023-05-23T05:43:54;15.7;68.6
78694;SHT31;68029;51.978;5.646;2023-05-23T05:46:24;15.7;68.4
78694;SHT31;68029;51.978;5.646;2023-05-23T05:48:53;15.7;68.6
78694;SHT31;68029;51.978;5.646;2023-05-23T05:51:23;15.6;68.7
78694;SHT31;68029;51.978;5.646;2023-05-23T05:53:52;15.6;68.4
78694;SHT31;68029;51.978;5.646;2023-05-23T05:56:22;15.6;67.8
78694;SHT31;68029;51.978;5.646;2023-05-23T05:58:52;15.6;67.4
78694;SHT31;68029;51.978;5.646;2023-05-23T06:01:22;15.6;66.7
78694;SHT31;68029;51.978;5.646;2023-05-23T06:03:53;15.6;66.1
78694;SHT31;68029;51.978;5.646;2023-05-23T06:06:22;15.6;65.8
78694;SHT31;68029;51.978;5.646;2023-05-23T06:08:52;15.5;65.8
78694;SHT31;68029;51.978;5.646;2023-05-23T06:11:21;15.5;64.7
78694;SHT31;68029;51.978;5.646;2023-05-23T06:13:51;15.5;64.1
78694;SHT31;68029;51.978;5.646;2023-05-23T06:16:20;15.5;64.5
78694;SHT31;68029;51.978;5.646;2023-05-23T06:18:50;15.5;64.4
78694;SHT31;68029;51.978;5.646;2023-05-23T06:21:19;15.5;64.0
78694;SHT31;68029;51.978;5.646;2023-05-23T06:23:49;15.5;63.7
78694;SHT31;68029;51.978;5.646;2023-05-23T06:26:18;15.5;62.9
78694;SHT31;68029;51.978;5.646;2023-05-23T06:28:50;15.5;62.9
78694;SHT31;68029;51.978;5.646;2023-05-23T06:31:20;15.5;62.8
78694;SHT31;68029;51.978;5.646;2023-05-23T06:33:49;15.5;62.8
78694;SHT31;68029;51.978;5.646;2023-05-23T06:36:20;15.6;62.5
78694;SHT31;68029;51.978;5.646;2023-05-23T06:38:50;15.6;62.2
78694;SHT31;68029;51.978;5.646;2023-05-23T06:41:21;15.7;62.2
78694;SHT31;68029;51.978;5.646;2023-05-23T06:43:51;15.7;62.3
78694;SHT31;68029;51.978;5.646;2023-05-23T06:46:20;15.8;62.0
78694;SHT31;68029;51.978;5.646;2023-05-23T06:48:50;15.8;62.3
78694;SHT31;68029;51.978;5.646;2023-05-23T06:51:19;15.9;63.3
78694;SHT31;68029;51.978;5.646;2023-05-23T06:53:49;15.9;62.5
78694;SHT31;68029;51.978;5.646;2023-05-23T06:56:18;16.0;61.8
78694;SHT31;68029;51.978;5.646;2023-05-23T06:58:49;16.1;61.2
78694;SHT31;68029;51.978;5.646;2023-05-23T07:01:18;16.2;60.8
78694;SHT31;68029;51.978;5.646;2023-05-23T07:03:48;16.3;61.4
78694;SHT31;68029;51.978;5.646;2023-05-23T07:06:18;16.4;61.3
78694;SHT31;68029;51.978;5.646;2023-05-23T07:08:47;16.5;61.2
78694;SHT31;68029;51.978;5.646;2023-05-23T07:11:19;16.5;59.3
78694;SHT31;68029;51.978;5.646;2023-05-23T07:13:49;16.5;60.4
78694;SHT31;68029;51.978;5.646;2023-05-23T07:16:19;16.6;59.8
78694;SHT31;68029;51.978;5.646;2023-05-23T07:18:48;16.6;59.3
78694;SHT31;68029;51.978;5.646;2023-05-23T07:21:18;16.6;60.3
78694;SHT31;68029;51.978;5.646;2023-05-23T07:23:47;16.6;59.4
78694;SHT31;68029;51.978;5.646;2023-05-23T07:26:17;16.6;59.7
78694;SHT31;68029;51.978;5.646;2023-05-23T07:28:46;16.6;59.4
78694;SHT31;68029;51.978;5.646;2023-05-23T07:31:16;16.6;60.6
78694;SHT31;68029;51.978;5.646;2023-05-23T07:33:46;16.6;60.6
78694;SHT31;68029;51.978;5.646;2023-05-23T07:36:16;16.6;59.9
78694;SHT31;68029;51.978;5.646;2023-05-23T07:38:45;16.6;60.4
78694;SHT31;68029;51.978;5.646;2023-05-23T07:41:15;16.6;60.6
78694;SHT31;68029;51.978;5.646;2023-05-23T07:43:44;16.6;60.9
78694;SHT31;68029;51.978;5.646;2023-05-23T07:46:14;16.6;60.2
78694;SHT31;68029;51.978;5.646;2023-05-23T07:48:44;16.6;59.9
78694;SHT31;68029;51.978;5.646;2023-05-23T07:51:14;16.5;60.2
78694;SHT31;68029;51.978;5.646;2023-05-23T07:53:47;16.5;60.4
78694;SHT31;68029;51.978;5.646;2023-05-23T07:56:17;16.5;60.3
78694;SHT31;68029;51.978;5.646;2023-05-23T07:58:47;16.4;60.2
78694;SHT31;68029;51.978;5.646;2023-05-23T08:01:17;16.4;59.4
78694;SHT31;68029;51.978;5.646;2023-05-23T08:03:46;16.3;59.0
78694;SHT31;68029;51.978;5.646;2023-05-23T08:06:16;16.3;60.0
78694;SHT31;68029;51.978;5.646;2023-05-23T08:08:45;16.3;60.1
78694;SHT31;68029;51.978;5.646;2023-05-23T08:11:15;16.4;58.5
78694;SHT31;68029;51.978;5.646;2023-05-23T08:13:45;16.5;57.8
78694;SHT31;68029;51.978;5.646;2023-05-23T08:16:14;16.6;58.5
78694;SHT31;68029;51.978;5.646;2023-05-23T08:18:44;16.8;56.5
78694;SHT31;68029;51.978;5.646;2023-05-23T08:21:15;17.0;56.0
78694;SHT31;68029;51.978;5.646;2023-05-23T08:23:45;17.1;55.3
78694;SHT31;68029;51.978;5.646;2023-05-23T08:26:14;17.3;54.4
78694;SHT31;68029;51.978;5.646;2023-05-23T08:28:45;17.4;52.8
78694;SHT31;68029;51.978;5.646;2023-05-23T08:31:15;17.5;52.9
78694;SHT31;68029;51.978;5.646;2023-05-23T08:33:45;17.6;52.4
78694;SHT31;68029;51.978;5.646;2023-05-23T08:36:15;17.6;54.3
78694;SHT31;68029;51.978;5.646;2023-05-23T08:38:44;17.6;52.5
78694;SHT31;68029;51.978;5.646;2023-05-23T08:41:18;17.7;52.5
78694;SHT31;68029;51.978;5.646;2023-05-23T08:43:48;17.7;51.6
78694;SHT31;68029;51.978;5.646;2023-05-23T08:46:18;17.8;50.6
78694;SHT31;68029;51.978;5.646;2023-05-23T08:48:51;17.9;50.7
78694;SHT31;68029;51.978;5.646;2023-05-23T08:51:25;17.9;51.0
78694;SHT31;68029;51.978;5.646;2023-05-23T08:53:56;18.0;49.9
78694;SHT31;68029;51.978;5.646;2023-05-23T08:56:26;18.1;50.0
78694;SHT31;68029;51.978;5.646;2023-05-23T08:58:57;18.1;51.6
78694;SHT31;68029;51.978;5.646;2023-05-23T09:01:28;18.2;49.1
78694;SHT31;68029;51.978;5.646;2023-05-23T09:04:01;18.2;49.4
78694;SHT31;68029;51.978;5.646;2023-05-23T09:06:33;18.2;49.7
78694;SHT31;68029;51.978;5.646;2023-05-23T09:09:04;18.1;50.8
78694;SHT31;68029;51.978;5.646;2023-05-23T09:11:34;18.1;50.2
78694;SHT31;68029;51.978;5.646;2023-05-23T09:14:03;18.1;50.2
78694;SHT31;68029;51.978;5.646;2023-05-23T09:16:34;18.2;49.4
78694;SHT31;68029;51.978;5.646;2023-05-23T09:19:11;18.2;49.8
78694;SHT31;68029;51.978;5.646;2023-05-23T09:21:44;18.3;50.0
78694;SHT31;68029;51.978;5.646;2023-05-23T09:24:14;18.5;48.6
78694;SHT31;68029;51.978;5.646;2023-05-23T09:26:45;18.7;48.6
78694;SHT31;68029;51.978;5.646;2023-05-23T09:29:18;19.0;49.1
78694;SHT31;68029;51.978;5.646;2023-05-23T09:31:49;19.2;48.7
78694;SHT31;68029;51.978;5.646;2023-05-23T09:34:18;19.5;47.3
78694;SHT31;68029;51.978;5.646;2023-05-23T09:36:48;19.7;45.1
78694;SHT31;68029;51.978;5.646;2023-05-23T09:39:18;19.8;45.0
78694;SHT31;68029;51.978;5.646;2023-05-23T09:41:49;19.9;45.1
78694;SHT31;68029;51.978;5.646;2023-05-23T09:44:22;20.0;45.7
78694;SHT31;68029;51.978;5.646;2023-05-23T09:46:54;20.1;44.3
78694;SHT31;68029;51.978;5.646;2023-05-23T09:49:25;20.3;43.8
78694;SHT31;68029;51.978;5.646;2023-05-23T09:51:59;20.5;44.7
78694;SHT31;68029;51.978;5.646;2023-05-23T09:54:29;20.8;43.8
78694;SHT31;68029;51.978;5.646;2023-05-23T09:56:59;21.0;43.2
78694;SHT31;68029;51.978;5.646;2023-05-23T09:59:34;21.1;43.2
78694;SHT31;68029;51.978;5.646;2023-05-23T10:02:11;21.3;42.7
78694;SHT31;68029;51.978;5.646;2023-05-23T10:04:42;21.4;40.8
78694;SHT31;68029;51.978;5.646;2023-05-23T10:07:18;21.6;41.9
78694;SHT31;68029;51.978;5.646;2023-05-23T10:09:54;21.8;41.0
78694;SHT31;68029;51.978;5.646;2023-05-23T10:12:57;22.0;39.6
78694;SHT31;68029;51.978;5.646;2023-05-23T10:15:32;22.2;39.4
78694;SHT31;68029;51.978;5.646;2023-05-23T10:18:08;22.4;40.2
78694;SHT31;68029;51.978;5.646;2023-05-23T10:20:42;22.6;40.5
78694;SHT31;68029;51.978;5.646;2023-05-23T10:23:17;22.8;41.7
78694;SHT31;68029;51.978;5.646;2023-05-23T10:25:48;23.0;39.0
78694;SHT31;68029;51.978;5.646;2023-05-23T10:28:19;23.3;36.7
78694;SHT31;68029;51.978;5.646;2023-05-23T10:30:51;23.5;36.5
78694;SHT31;68029;51.978;5.646;2023-05-23T10:33:21;23.6;38.3
78694;SHT31;68029;51.978;5.646;2023-05-23T10:35:56;23.6;37.1
78694;SHT31;68029;51.978;5.646;2023-05-23T10:38:36;23.7;36.7
78694;SHT31;68029;51.978;5.646;2023-05-23T10:41:11;23.7;38.2
78694;SHT31;68029;51.978;5.646;2023-05-23T10:43:48;23.7;36.9
78694;SHT31;68029;51.978;5.646;2023-05-23T10:46:22;23.6;37.8
78694;SHT31;68029;51.978;5.646;2023-05-23T10:48:55;23.6;35.5
78694;SHT31;68029;51.978;5.646;2023-05-23T10:51:32;23.6;36.1
78694;SHT31;68029;51.978;5.646;2023-05-23T10:54:10;23.6;38.9
78694;SHT31;68029;51.978;5.646;2023-05-23T10:56:40;23.6;37.5
78694;SHT31;68029;51.978;5.646;2023-05-23T10:59:20;23.7;37.6
78694;SHT31;68029;51.978;5.646;2023-05-23T11:01:51;23.7;38.1
78694;SHT31;68029;51.978;5.646;2023-05-23T11:04:27;23.7;39.5
78694;SHT31;68029;51.978;5.646;2023-05-23T11:06:57;23.7;38.3
78694;SHT31;68029;51.978;5.646;2023-05-23T11:09:27;23.8;36.9
78694;SHT31;68029;51.978;5.646;2023-05-23T11:11:59;23.8;37.7
78694;SHT31;68029;51.978;5.646;2023-05-23T11:14:50;23.8;37.1
78694;SHT31;68029;51.978;5.646;2023-05-23T11:17:28;23.8;36.8
78694;SHT31;68029;51.978;5.646;2023-05-23T11:20:03;23.8;36.3
78694;SHT31;68029;51.978;5.646;2023-05-23T11:22:35;23.8;36.3
78694;SHT31;68029;51.978;5.646;2023-05-23T11:25:10;23.8;36.8
78694;SHT31;68029;51.978;5.646;2023-05-23T11:27:40;23.7;36.8
78694;SHT31;68029;51.978;5.646;2023-05-23T11:30:16;23.7;37.7
78694;SHT31;68029;51.978;5.646;2023-05-23T11:32:51;23.6;37.5
78694;SHT31;68029;51.978;5.646;2023-05-23T11:35:24;23.6;38.4
78694;SHT31;68029;51.978;5.646;2023-05-23T11:37:56;23.6;37.5
78694;SHT31;68029;51.978;5.646;2023-05-23T11:40:27;23.7;36.6
78694;SHT31;68029;51.978;5.646;2023-05-23T11:42:58;23.8;36.9
78694;SHT31;68029;51.978;5.646;2023-05-23T11:45:30;23.9;36.6
78694;SHT31;68029;51.978;5.646;2023-05-23T11:48:06;24.0;37.3
78694;SHT31;68029;51.978;5.646;2023-05-23T11:50:44;24.0;37.9
78694;SHT31;68029;51.978;5.646;2023-05-23T11:53:15;24.0;37.5
78694;SHT31;68029;51.978;5.646;2023-05-23T11:55:51;24.1;36.6
78694;SHT31;68029;51.978;5.646;2023-05-23T11:58:25;24.1;37.7
78694;SHT31;68029;51.978;5.646;2023-05-23T12:01:00;24.1;36.5
78694;SHT31;68029;51.978;5.646;2023-05-23T12:03:30;24.1;35.2
78694;SHT31;68029;51.978;5.646;2023-05-23T12:06:00;24.0;34.7
78694;SHT31;68029;51.978;5.646;2023-05-23T12:08:30;23.9;35.0
78694;SHT31;68029;51.978;5.646;2023-05-23T12:11:00;23.8;34.9
78694;SHT31;68029;51.978;5.646;2023-05-23T12:13:30;23.7;35.6
78694;SHT31;68029;51.978;5.646;2023-05-23T12:16:00;23.6;37.2
78694;SHT31;68029;51.978;5.646;2023-05-23T12:18:31;23.6;34.9
78694;SHT31;68029;51.978;5.646;2023-05-23T12:21:04;23.7;34.5
78694;SHT31;68029;51.978;5.646;2023-05-23T12:23:35;23.7;36.2
78694;SHT31;68029;51.978;5.646;2023-05-23T12:26:05;23.7;35.6
78694;SHT31;68029;51.978;5.646;2023-05-23T12:28:37;23.7;35.5
78694;SHT31;68029;51.978;5.646;2023-05-23T12:31:15;23.6;36.7
78694;SHT31;68029;51.978;5.646;2023-05-23T12:33:46;23.5;37.4
78694;SHT31;68029;51.978;5.646;2023-05-23T12:36:21;23.4;36.5
78694;SHT31;68029;51.978;5.646;2023-05-23T12:38:53;23.2;36.5
78694;SHT31;68029;51.978;5.646;2023-05-23T12:41:27;23.0;37.0
78694;SHT31;68029;51.978;5.646;2023-05-23T12:43:58;22.9;38.5
78694;SHT31;68029;51.978;5.646;2023-05-23T12:46:28;22.8;39.3
78694;SHT31;68029;51.978;5.646;2023-05-23T12:48:58;22.8;39.5
78694;SHT31;68029;51.978;5.646;2023-05-23T12:51:27;22.9;37.8
78694;SHT31;68029;51.978;5.646;2023-05-23T12:53:58;23.0;36.8
78694;SHT31;68029;51.978;5.646;2023-05-23T12:56:28;23.2;37.7
78694;SHT31;68029;51.978;5.646;2023-05-23T12:58:58;23.4;35.6
78694;SHT31;68029;51.978;5.646;2023-05-23T13:01:29;23.6;35.4
78694;SHT31;68029;51.978;5.646;2023-05-23T13:04:01;23.6;35.8
78694;SHT31;68029;51.978;5.646;2023-05-23T13:06:30;23.6;35.2
78694;SHT31;68029;51.978;5.646;2023-05-23T13:09:00;23.6;35.0
78694;SHT31;68029;51.978;5.646;2023-05-23T13:11:30;23.5;35.7
78694;SHT31;68029;51.978;5.646;2023-05-23T13:14:00;23.4;36.2
78694;SHT31;68029;51.978;5.646;2023-05-23T13:16:30;23.3;35.9
78694;SHT31;68029;51.978;5.646;2023-05-23T13:19:00;23.3;35.9
78694;SHT31;68029;51.978;5.646;2023-05-23T13:21:29;23.2;37.3
78694;SHT31;68029;51.978;5.646;2023-05-23T13:23:59;23.1;38.2
78694;SHT31;68029;51.978;5.646;2023-05-23T13:26:29;23.1;35.5
78694;SHT31;68029;51.978;5.646;2023-05-23T13:28:59;23.1;35.2
78694;SHT31;68029;51.978;5.646;2023-05-23T13:31:28;23.1;37.2
78694;SHT31;68029;51.978;5.646;2023-05-23T13:33:58;23.1;35.7
78694;SHT31;68029;51.978;5.646;2023-05-23T13:36:27;23.1;35.8
78694;SHT31;68029;51.978;5.646;2023-05-23T13:38:58;23.1;36.6
78694;SHT31;68029;51.978;5.646;2023-05-23T13:41:27;23.0;36.8
78694;SHT31;68029;51.978;5.646;2023-05-23T13:43:59;23.0;36.3
78694;SHT31;68029;51.978;5.646;2023-05-23T13:46:28;23.0;35.9
78694;SHT31;68029;51.978;5.646;2023-05-23T13:48:58;23.1;36.5
78694;SHT31;68029;51.978;5.646;2023-05-23T13:51:27;23.1;36.2
78694;SHT31;68029;51.978;5.646;2023-05-23T13:53:58;23.1;36.8
78694;SHT31;68029;51.978;5.646;2023-05-23T13:56:28;23.2;35.9
78694;SHT31;68029;51.978;5.646;2023-05-23T13:58:58;23.2;36.0
78694;SHT31;68029;51.978;5.646;2023-05-23T14:01:28;23.3;36.7
78694;SHT31;68029;51.978;5.646;2023-05-23T14:03:58;23.4;36.7
78694;SHT31;68029;51.978;5.646;2023-05-23T14:06:29;23.4;35.5
78694;SHT31;68029;51.978;5.646;2023-05-23T14:09:00;23.5;35.2
78694;SHT31;68029;51.978;5.646;2023-05-23T14:11:29;23.7;34.2
78694;SHT31;68029;51.978;5.646;2023-05-23T14:13:59;23.8;33.6
78694;SHT31;68029;51.978;5.646;2023-05-23T14:16:29;23.8;34.0
78694;SHT31;68029;51.978;5.646;2023-05-23T14:18:58;23.8;34.0
78694;SHT31;68029;51.978;5.646;2023-05-23T14:21:28;23.7;34.0
78694;SHT31;68029;51.978;5.646;2023-05-23T14:23:58;23.6;34.8
78694;SHT31;68029;51.978;5.646;2023-05-23T14:26:27;23.4;34.0
78694;SHT31;68029;51.978;5.646;2023-05-23T14:28:57;23.2;33.7
78694;SHT31;68029;51.978;5.646;2023-05-23T14:31:27;23.0;34.3
78694;SHT31;68029;51.978;5.646;2023-05-23T14:33:57;23.0;36.5
78694;SHT31;68029;51.978;5.646;2023-05-23T14:36:27;22.9;34.0
78694;SHT31;68029;51.978;5.646;2023-05-23T14:38:58;22.9;34.3
78694;SHT31;68029;51.978;5.646;2023-05-23T14:41:30;22.8;34.4
78694;SHT31;68029;51.978;5.646;2023-05-23T14:44:00;22.7;36.1
78694;SHT31;68029;51.978;5.646;2023-05-23T14:46:29;22.6;35.1
78694;SHT31;68029;51.978;5.646;2023-05-23T14:48:59;22.6;34.8
78694;SHT31;68029;51.978;5.646;2023-05-23T14:51:29;22.6;34.7
78694;SHT31;68029;51.978;5.646;2023-05-23T14:53:58;22.6;35.0
78694;SHT31;68029;51.978;5.646;2023-05-23T14:56:28;22.5;35.5
78694;SHT31;68029;51.978;5.646;2023-05-23T14:58:58;22.5;35.3
78694;SHT31;68029;51.978;5.646;2023-05-23T15:01:27;22.5;35.6
78694;SHT31;68029;51.978;5.646;2023-05-23T15:03:58;22.4;34.9
78694;SHT31;68029;51.978;5.646;2023-05-23T15:06:28;22.4;35.1
78694;SHT31;68029;51.978;5.646;2023-05-23T15:08:58;22.3;35.7
78694;SHT31;68029;51.978;5.646;2023-05-23T15:11:28;22.3;35.9
78694;SHT31;68029;51.978;5.646;2023-05-23T15:13:58;22.2;35.5
78694;SHT31;68029;51.978;5.646;2023-05-23T15:16:28;22.2;35.8
78694;SHT31;68029;51.978;5.646;2023-05-23T15:18:59;22.2;35.1
78694;SHT31;68029;51.978;5.646;2023-05-23T15:21:29;22.1;34.7
78694;SHT31;68029;51.978;5.646;2023-05-23T15:24:00;22.0;35.4
78694;SHT31;68029;51.978;5.646;2023-05-23T15:26:32;21.9;36.3
78694;SHT31;68029;51.978;5.646;2023-05-23T15:29:02;21.9;36.6
78694;SHT31;68029;51.978;5.646;2023-05-23T15:31:32;21.8;36.5
78694;SHT31;68029;51.978;5.646;2023-05-23T15:34:01;21.8;36.4
78694;SHT31;68029;51.978;5.646;2023-05-23T15:36:31;21.8;36.1
78694;SHT31;68029;51.978;5.646;2023-05-23T15:39:01;21.8;36.2
78694;SHT31;68029;51.978;5.646;2023-05-23T15:41:32;21.7;36.0
78694;SHT31;68029;51.978;5.646;2023-05-23T15:44:02;21.7;35.5
78694;SHT31;68029;51.978;5.646;2023-05-23T15:46:32;21.7;34.1
78694;SHT31;68029;51.978;5.646;2023-05-23T15:49:03;21.6;34.9
78694;SHT31;68029;51.978;5.646;2023-05-23T15:51:33;21.5;34.7
78694;SHT31;68029;51.978;5.646;2023-05-23T15:54:03;21.4;35.0
78694;SHT31;68029;51.978;5.646;2023-05-23T15:56:33;21.2;35.0
78694;SHT31;68029;51.978;5.646;2023-05-23T15:59:03;21.1;35.8
78694;SHT31;68029;51.978;5.646;2023-05-23T16:01:35;21.0;37.1
78694;SHT31;68029;51.978;5.646;2023-05-23T16:04:05;20.9;36.9
78694;SHT31;68029;51.978;5.646;2023-05-23T16:06:34;20.9;36.8
78694;SHT31;68029;51.978;5.646;2023-05-23T16:09:04;20.8;37.3
78694;SHT31;68029;51.978;5.646;2023-05-23T16:11:34;20.7;36.1
78694;SHT31;68029;51.978;5.646;2023-05-23T16:14:03;20.6;36.4
78694;SHT31;68029;51.978;5.646;2023-05-23T16:16:33;20.5;36.3
78694;SHT31;68029;51.978;5.646;2023-05-23T16:19:04;20.4;36.8
78694;SHT31;68029;51.978;5.646;2023-05-23T16:21:33;20.3;37.7
78694;SHT31;68029;51.978;5.646;2023-05-23T16:24:04;20.2;37.5
78694;SHT31;68029;51.978;5.646;2023-05-23T16:26:34;20.1;37.0